Time;durP1;ratioP1;P1;durP2;ratioP2;P2;SDS_P1;SDS_P2;PMS_P1;PMS_P2;Temp;Humidity;BMP_temperature;BMP_pressure;BME280_temperature;BME280_humidity;BME280_pressure;Samples;Min_cycle;Max_cycle;Signal;HPM_P1;HPM_P2
2022/10/11 00:00:51;;;;;;;16.65;1.85;;;5.40;99.90;;;;;;5057602;28;20137;-27
2022/10/11 00:03:17;;;;;;;12.98;1.83;;;5.30;99.90;;;;;;5056800;28;20128;-27
2022/10/11 00:05:43;;;;;;;30.60;4.22;;;5.20;99.90;;;;;;5057043;28;20088;-27
2022/10/11 00:08:10;;;;;;;16.52;1.67;;;5.10;99.90;;;;;;5056635;28;20044;-27
2022/10/11 00:10:35;;;;;;;11.70;2.22;;;5.00;99.90;;;;;;5056822;28;20048;-27
2022/10/11 00:13:02;;;;;;;15.85;2.05;;;4.80;99.90;;;;;;5057132;28;20147;-27
2022/10/11 00:15:28;;;;;;;22.88;2.08;;;4.70;99.90;;;;;;5038678;28;20049;-27
2022/10/11 00:17:54;;;;;;;17.75;2.08;;;4.80;99.90;;;;;;5056759;28;20041;-27
2022/10/11 00:20:19;;;;;;;23.60;2.22;;;4.50;99.90;;;;;;5056987;28;20427;-27
2022/10/11 00:22:45;;;;;;;18.35;2.03;;;4.50;99.90;;;;;;5057206;28;20098;-27
2022/10/11 00:25:12;;;;;;;14.27;2.13;;;4.40;99.90;;;;;;5056339;28;20041;-27
2022/10/11 00:27:37;;;;;;;19.10;2.00;;;4.30;99.90;;;;;;5056900;28;20056;-27
2022/10/11 00:30:05;;;;;;;14.07;2.17;;;4.30;99.90;;;;;;5055846;28;20128;-27
2022/10/11 00:32:33;;;;;;;15.52;2.42;;;4.30;99.90;;;;;;5056385;28;20494;-27
2022/10/11 00:35:03;;;;;;;21.77;2.20;;;4.30;99.90;;;;;;5056148;28;20059;-27
2022/10/11 00:37:30;;;;;;;13.68;2.55;;;4.20;99.90;;;;;;5056765;28;20048;-27
2022/10/11 00:39:56;;;;;;;20.15;3.08;;;4.30;99.90;;;;;;5054943;28;20058;-27
2022/10/11 00:42:22;;;;;;;20.95;3.20;;;4.50;99.90;;;;;;5055703;28;20059;-27
2022/10/11 00:44:49;;;;;;;17.92;2.72;;;4.60;99.90;;;;;;5054599;28;20057;-27
2022/10/11 00:47:19;;;;;;;20.42;2.95;;;4.80;99.90;;;;;;5055762;28;20133;-27
2022/10/11 00:49:52;;;;;;;16.63;2.78;;;5.00;99.90;;;;;;5056162;28;20048;-27
2022/10/11 00:52:32;;;;;;;17.27;3.53;;;5.00;99.90;;;;;;5056392;28;20084;-27
2022/10/11 00:55:06;;;;;;;21.77;3.55;;;5.00;99.90;;;;;;5055802;28;20128;-27
2022/10/11 00:57:38;;;;;;;20.98;3.10;;;4.90;99.90;;;;;;5055742;28;20048;-27
2022/10/11 01:00:09;;;;;;;19.45;2.65;;;4.80;99.90;;;;;;5055616;28;20175;-27
2022/10/11 01:02:35;;;;;;;18.23;3.05;;;4.60;99.90;;;;;;5055635;28;20049;-27
2022/10/11 01:05:01;;;;;;;16.58;2.78;;;4.50;99.90;;;;;;5054905;28;20099;-27
2022/10/11 01:07:30;;;;;;;16.35;2.47;;;4.50;99.90;;;;;;5055562;28;20045;-27
2022/10/11 01:09:56;;;;;;;21.30;3.97;;;4.60;99.90;;;;;;5054820;28;20102;-27
2022/10/11 01:12:25;;;;;;;25.15;3.33;;;4.40;99.90;;;;;;5055351;28;20095;-27
2022/10/11 01:15:15;;;;;;;21.60;3.47;;;4.30;99.90;;;;;;5055034;28;20055;-27
2022/10/11 01:18:00;;;;;;;13.95;2.25;;;4.20;99.90;;;;;;5055966;28;20049;-27
2022/10/11 01:20:34;;;;;;;20.10;2.97;;;4.10;99.90;;;;;;5055951;28;20042;-27
2022/10/11 01:23:33;;;;;;;25.00;3.15;;;4.00;99.90;;;;;;5056091;28;20041;-27
2022/10/11 01:26:23;;;;;;;16.05;2.47;;;4.00;99.90;;;;;;5038247;28;20051;-27
2022/10/11 01:29:35;;;;;;;25.33;3.83;;;4.00;99.90;;;;;;5055422;28;20507;-27
2022/10/11 01:32:25;;;;;;;16.92;2.97;;;3.90;99.90;;;;;;5054974;28;20036;-27
2022/10/11 01:34:57;;;;;;;19.90;2.97;;;3.80;99.90;;;;;;5055911;28;20048;-27
2022/10/11 01:37:31;;;;;;;27.27;3.47;;;3.90;99.90;;;;;;5054977;28;20404;-27
2022/10/11 01:40:20;;;;;;;15.25;3.58;;;3.90;99.90;;;;;;5055253;28;20407;-27
2022/10/11 01:42:47;;;;;;;28.65;5.50;;;4.10;99.90;;;;;;5054922;28;20052;-27
2022/10/11 01:45:15;;;;;;;26.15;3.53;;;4.20;99.90;;;;;;5053647;28;20107;-27
2022/10/11 01:47:41;;;;;;;20.13;3.38;;;4.40;99.90;;;;;;5054773;28;20045;-27
2022/10/11 01:50:29;;;;;;;26.00;4.00;;;4.50;99.90;;;;;;5055210;28;20045;-27
2022/10/11 01:53:01;;;;;;;20.42;4.22;;;4.70;99.90;;;;;;5054944;28;20041;-27
2022/10/11 01:55:41;;;;;;;29.60;3.50;;;4.80;99.90;;;;;;5054710;28;20128;-27
2022/10/11 01:58:33;;;;;;;20.58;2.75;;;4.70;99.90;;;;;;5054562;28;20053;-27
2022/10/11 02:01:19;;;;;;;27.55;3.60;;;4.60;99.90;;;;;;5054177;28;20383;-27
2022/10/11 02:03:48;;;;;;;18.15;2.90;;;4.50;99.90;;;;;;5055365;28;20136;-27
2022/10/11 02:06:31;;;;;;;21.88;3.08;;;4.50;99.90;;;;;;5054381;28;20470;-27
2022/10/11 02:09:34;;;;;;;17.13;2.55;;;4.40;99.90;;;;;;5036859;28;20053;-28
2022/10/11 02:12:09;;;;;;;13.68;2.58;;;4.30;99.90;;;;;;5054285;28;20037;-26
2022/10/11 02:14:42;;;;;;;19.80;2.35;;;4.20;99.90;;;;;;5054344;28;20083;-26
2022/10/11 02:17:20;;;;;;;16.60;2.42;;;4.00;99.90;;;;;;5054934;28;20049;-26
2022/10/11 02:19:51;;;;;;;15.98;2.67;;;4.00;99.90;;;;;;5054267;28;20109;-26
2022/10/11 02:22:27;;;;;;;18.58;3.78;;;4.00;99.90;;;;;;5054433;28;20041;-27
2022/10/11 02:24:58;;;;;;;15.60;2.45;;;3.90;99.90;;;;;;5054151;28;20132;-27
2022/10/11 02:27:28;;;;;;;15.18;2.22;;;3.90;99.90;;;;;;5054949;28;20433;-27
2022/10/11 02:29:58;;;;;;;20.65;3.13;;;4.10;99.90;;;;;;5054324;28;20049;-27
2022/10/11 02:32:25;;;;;;;29.58;3.33;;;4.10;99.90;;;;;;5053981;28;20556;-26
2022/10/11 02:34:56;;;;;;;24.50;2.80;;;4.10;99.90;;;;;;5036164;28;20399;-27
2022/10/11 02:37:35;;;;;;;14.73;2.13;;;4.10;99.90;;;;;;5053332;28;20048;-26
2022/10/11 02:40:31;;;;;;;18.40;2.72;;;4.20;99.90;;;;;;5053002;28;20052;-27
2022/10/11 02:43:34;;;;;;;19.15;2.60;;;4.10;99.90;;;;;;5036877;28;20131;-27
2022/10/11 02:46:02;;;;;;;15.13;2.35;;;4.00;99.90;;;;;;5054097;28;20044;-26
2022/10/11 02:48:30;;;;;;;17.08;2.42;;;4.00;99.90;;;;;;5053727;28;20059;-27
2022/10/11 02:50:57;;;;;;;19.35;2.40;;;4.00;99.90;;;;;;5054187;28;20441;-27
2022/10/11 02:53:25;;;;;;;14.80;2.65;;;3.90;99.90;;;;;;5053652;28;20052;-26
2022/10/11 02:55:53;;;;;;;17.20;2.08;;;3.80;99.90;;;;;;5052695;28;20463;-27
2022/10/11 02:58:19;;;;;;;22.98;3.05;;;3.80;99.90;;;;;;5053551;28;20053;-26
2022/10/11 03:00:45;;;;;;;14.75;3.67;;;3.80;99.90;;;;;;5052346;28;20052;-26
2022/10/11 03:03:11;;;;;;;17.90;3.47;;;3.80;99.90;;;;;;5053571;28;20045;-26
2022/10/11 03:05:40;;;;;;;18.50;3.10;;;3.80;99.90;;;;;;5054373;28;20052;-28
2022/10/11 03:08:07;;;;;;;24.10;3.13;;;3.80;99.90;;;;;;5035980;28;20041;-26
2022/10/11 03:10:34;;;;;;;20.00;2.70;;;4.00;99.90;;;;;;5053699;28;20383;-26
2022/10/11 03:12:59;;;;;;;20.58;3.42;;;4.10;99.90;;;;;;5053533;28;20055;-26
2022/10/11 03:15:25;;;;;;;21.23;3.45;;;4.30;99.90;;;;;;5053470;28;20124;-26
2022/10/11 03:17:51;;;;;;;23.02;3.15;;;4.40;99.90;;;;;;5052495;28;20533;-27
2022/10/11 03:20:17;;;;;;;31.52;3.72;;;4.50;99.90;;;;;;5053437;28;20406;-26
2022/10/11 03:22:43;;;;;;;23.10;4.32;;;4.50;99.90;;;;;;5053072;28;20522;-26
2022/10/11 03:25:09;;;;;;;22.05;4.00;;;4.50;99.90;;;;;;5053949;28;20132;-26
2022/10/11 03:27:35;;;;;;;17.65;3.13;;;4.40;99.90;;;;;;5053018;28;20040;-26
2022/10/11 03:30:01;;;;;;;21.67;3.20;;;4.30;99.90;;;;;;5053348;28;20080;-26
2022/10/11 03:32:27;;;;;;;22.13;3.33;;;4.30;99.90;;;;;;5053312;28;20059;-27
2022/10/11 03:34:53;;;;;;;24.50;4.35;;;4.30;99.90;;;;;;5056891;28;20368;-26
2022/10/11 03:37:18;;;;;;;19.95;3.30;;;4.20;99.90;;;;;;5057508;28;20083;-27
2022/10/11 03:39:44;;;;;;;16.67;2.80;;;4.20;99.90;;;;;;5057304;28;20466;-27
2022/10/11 03:42:11;;;;;;;18.52;3.25;;;4.20;99.90;;;;;;5057208;28;20037;-26
2022/10/11 03:44:37;;;;;;;21.05;2.85;;;4.20;99.90;;;;;;5057631;28;20395;-26
2022/10/11 03:47:04;;;;;;;23.13;4.22;;;4.20;99.90;;;;;;5057063;28;20482;-26
2022/10/11 03:49:30;;;;;;;15.00;3.00;;;4.20;99.90;;;;;;5056593;28;20398;-26
2022/10/11 03:51:56;;;;;;;18.85;5.30;;;4.30;99.90;;;;;;5056890;28;20037;-27
2022/10/11 03:54:22;;;;;;;22.83;3.47;;;4.30;99.90;;;;;;5056951;28;20064;-26
2022/10/11 03:56:48;;;;;;;14.80;3.60;;;4.30;99.90;;;;;;5057114;28;20044;-26
2022/10/11 03:59:13;;;;;;;18.10;3.22;;;4.30;99.90;;;;;;5055687;28;20475;-26
2022/10/11 04:01:39;;;;;;;19.25;3.17;;;4.30;99.90;;;;;;5056846;28;20402;-26
2022/10/11 04:04:05;;;;;;;15.50;3.15;;;4.30;99.90;;;;;;5056825;28;20048;-26
2022/10/11 04:06:31;;;;;;;19.63;3.10;;;4.20;99.90;;;;;;5056764;28;20041;-27
2022/10/11 04:08:57;;;;;;;20.52;3.20;;;4.20;99.90;;;;;;5056680;28;20041;-27
2022/10/11 04:11:22;;;;;;;16.90;3.63;;;4.30;99.90;;;;;;5056550;28;20071;-26
2022/10/11 04:13:48;;;;;;;19.70;3.60;;;4.30;99.90;;;;;;5056579;28;20049;-27
2022/10/11 04:16:14;;;;;;;24.75;3.60;;;4.30;99.90;;;;;;5056504;28;20045;-27
2022/10/11 04:18:39;;;;;;;17.88;3.10;;;4.40;99.90;;;;;;5055282;28;20045;-26
2022/10/11 04:21:05;;;;;;;21.98;3.28;;;4.50;99.90;;;;;;5038677;28;20045;-27
2022/10/11 04:23:32;;;;;;;27.27;5.20;;;4.70;99.90;;;;;;5056234;28;20045;-26
2022/10/11 04:25:58;;;;;;;21.35;3.20;;;4.40;99.90;;;;;;5056315;28;20110;-27
2022/10/11 04:28:24;;;;;;;16.38;3.30;;;5.10;99.90;;;;;;5056903;28;20052;-27
2022/10/11 04:30:50;;;;;;;22.05;4.13;;;4.40;99.90;;;;;;5056742;28;20383;-27
2022/10/11 04:33:16;;;;;;;25.13;3.97;;;4.40;99.90;;;;;;5055632;28;20053;-26
2022/10/11 04:35:42;;;;;;;26.10;3.88;;;4.40;99.90;;;;;;5056200;28;20056;-26
2022/10/11 04:38:08;;;;;;;22.73;4.07;;;4.50;99.90;;;;;;5056632;28;20048;-26
2022/10/11 04:40:34;;;;;;;23.95;4.47;;;4.70;99.90;;;;;;5056090;28;20037;-26
2022/10/11 04:43:01;;;;;;;20.63;3.60;;;4.50;99.90;;;;;;5056030;28;20045;-27
2022/10/11 04:45:26;;;;;;;19.83;3.60;;;4.50;99.90;;;;;;5054919;28;20072;-27
2022/10/11 04:47:52;;;;;;;24.63;4.53;;;4.50;99.90;;;;;;5055971;28;20044;-26
2022/10/11 04:50:18;;;;;;;26.83;3.78;;;4.50;99.90;;;;;;5054673;28;20556;-26
2022/10/11 04:52:43;;;;;;;19.52;4.47;;;4.50;99.90;;;;;;5056381;28;20131;-26
2022/10/11 04:55:10;;;;;;;22.80;4.38;;;4.50;99.90;;;;;;5056059;28;20041;-26
2022/10/11 04:57:36;;;;;;;20.35;3.67;;;4.40;99.90;;;;;;5055670;28;20055;-26
2022/10/11 05:00:03;;;;;;;23.67;5.88;;;4.40;99.90;;;;;;5056284;28;20467;-26
2022/10/11 05:02:29;;;;;;;15.85;3.28;;;4.40;99.90;;;;;;5054519;28;20127;-26
2022/10/11 05:04:55;;;;;;;18.40;3.10;;;4.40;99.90;;;;;;5055635;28;20124;-26
2022/10/11 05:07:20;;;;;;;19.00;3.30;;;4.40;99.90;;;;;;5056117;28;20084;-27
2022/10/11 05:09:46;;;;;;;19.38;3.45;;;4.50;99.90;;;;;;5054606;28;20049;-26
2022/10/11 05:12:12;;;;;;;23.50;3.42;;;4.60;99.90;;;;;;5055923;28;20041;-26
2022/10/11 05:14:38;;;;;;;17.23;4.13;;;4.70;99.90;;;;;;5055433;28;20060;-26
2022/10/11 05:17:04;;;;;;;19.90;3.78;;;4.90;99.90;;;;;;5055378;28;20049;-26
2022/10/11 05:19:30;;;;;;;21.00;3.05;;;5.30;99.90;;;;;;5055351;28;20053;-26
2022/10/11 05:21:56;;;;;;;21.08;3.20;;;5.10;99.90;;;;;;5055810;28;20049;-27
2022/10/11 05:24:22;;;;;;;20.83;3.05;;;5.30;99.90;;;;;;5053847;28;20522;-27
2022/10/11 05:26:48;;;;;;;22.70;3.90;;;5.40;99.90;;;;;;5055195;28;20052;-27
2022/10/11 05:29:14;;;;;;;11.95;2.53;;;5.50;99.90;;;;;;5055722;28;20052;-27
2022/10/11 05:31:40;;;;;;;16.52;3.28;;;5.60;99.90;;;;;;5053925;28;20124;-27
2022/10/11 05:34:06;;;;;;;19.75;2.60;;;5.70;99.90;;;;;;5055101;28;20131;-27
2022/10/11 05:36:31;;;;;;;21.65;3.08;;;5.70;99.90;;;;;;5054430;28;20084;-27
2022/10/11 05:38:57;;;;;;;21.60;3.80;;;5.80;99.90;;;;;;5055539;28;20118;-26
2022/10/11 05:41:23;;;;;;;23.05;4.03;;;5.80;99.90;;;;;;5054912;28;20126;-27
2022/10/11 05:43:48;;;;;;;12.88;2.17;;;5.80;99.90;;;;;;5054671;28;20055;-27
2022/10/11 05:46:14;;;;;;;20.23;3.78;;;5.70;99.90;;;;;;5053564;28;20403;-27
2022/10/11 05:48:40;;;;;;;19.45;3.85;;;5.60;99.90;;;;;;5054789;28;20072;-27
2022/10/11 05:51:08;;;;;;;19.52;2.60;;;5.60;99.90;;;;;;5037037;28;20506;-28
2022/10/11 05:53:34;;;;;;;26.60;3.15;;;5.60;99.90;;;;;;5055507;28;20041;-27
2022/10/11 05:56:00;;;;;;;16.60;2.72;;;5.50;99.90;;;;;;5055007;28;20371;-27
2022/10/11 05:58:26;;;;;;;17.30;2.58;;;5.60;99.90;;;;;;5053490;28;20387;-27
2022/10/11 06:00:52;;;;;;;17.42;2.95;;;5.50;99.90;;;;;;5054250;28;20552;-27
2022/10/11 06:03:19;;;;;;;21.33;2.55;;;5.50;99.90;;;;;;5053076;28;20495;-27
2022/10/11 06:05:45;;;;;;;22.33;3.30;;;5.50;99.90;;;;;;5055077;28;20491;-27
2022/10/11 06:08:12;;;;;;;17.40;2.95;;;5.60;99.90;;;;;;5054395;28;20052;-27
2022/10/11 06:10:39;;;;;;;19.83;3.30;;;5.50;99.90;;;;;;5053966;28;20517;-27
2022/10/11 06:13:05;;;;;;;16.30;2.60;;;5.50;99.90;;;;;;5055161;28;20052;-27
2022/10/11 06:15:31;;;;;;;15.52;2.60;;;5.60;99.90;;;;;;5054851;28;20047;-27
2022/10/11 06:17:58;;;;;;;17.63;3.05;;;5.60;99.90;;;;;;5053942;28;20453;-27
2022/10/11 06:20:24;;;;;;;19.50;3.33;;;5.60;99.90;;;;;;5053271;28;20106;-27
2022/10/11 06:22:50;;;;;;;15.00;3.03;;;5.70;99.90;;;;;;5054140;28;20056;-27
2022/10/11 06:25:16;;;;;;;15.90;2.78;;;5.70;99.90;;;;;;5054071;28;20049;-28
2022/10/11 06:27:41;;;;;;;13.23;2.63;;;5.70;99.90;;;;;;5054107;28;20086;-27
2022/10/11 06:30:08;;;;;;;15.13;3.28;;;5.70;99.90;;;;;;5053991;28;20491;-27
2022/10/11 06:32:33;;;;;;;23.38;3.63;;;5.80;99.90;;;;;;5053075;28;20491;-27
2022/10/11 06:34:59;;;;;;;20.92;3.05;;;5.80;99.90;;;;;;5019415;28;20048;-27
2022/10/11 06:37:25;;;;;;;14.20;3.03;;;5.80;99.90;;;;;;5053570;28;20049;-27
2022/10/11 06:39:50;;;;;;;14.93;2.58;;;5.80;99.90;;;;;;5053504;28;20536;-27
2022/10/11 06:42:16;;;;;;;14.23;2.25;;;5.80;99.90;;;;;;5036327;28;20049;-28
2022/10/11 06:44:42;;;;;;;11.82;2.08;;;5.90;99.90;;;;;;5054225;28;20057;-28
2022/10/11 06:47:08;;;;;;;18.10;3.05;;;5.90;99.90;;;;;;5053865;28;20067;-27
2022/10/11 06:49:34;;;;;;;14.23;3.15;;;5.90;99.90;;;;;;5054598;28;20080;-27
2022/10/11 06:52:00;;;;;;;15.82;2.75;;;6.10;99.90;;;;;;5053619;28;20048;-27
2022/10/11 06:54:26;;;;;;;20.20;3.35;;;6.30;99.90;;;;;;5052746;28;20045;-27
2022/10/11 06:56:51;;;;;;;13.73;2.65;;;6.40;99.90;;;;;;5052376;28;20090;-27
2022/10/11 06:59:17;;;;;;;16.25;3.15;;;6.60;99.90;;;;;;5053935;28;20040;-27
2022/10/11 07:01:43;;;;;;;16.77;2.92;;;6.70;99.90;;;;;;5052506;28;20498;-27
2022/10/11 07:04:09;;;;;;;12.15;3.10;;;6.90;99.90;;;;;;5054141;28;20095;-27
2022/10/11 07:06:37;;;;;;;20.65;2.75;;;7.00;99.90;;;;;;5053537;28;20136;-27
2022/10/11 07:09:04;;;;;;;10.73;2.30;;;7.20;99.90;;;;;;5052854;28;20503;-28
2022/10/11 07:11:29;;;;;;;14.57;2.53;;;7.40;99.90;;;;;;5053409;28;20486;-27
2022/10/11 07:13:59;;;;;;;15.45;3.03;;;7.60;99.90;;;;;;5053543;28;20048;-27
2022/10/11 07:16:25;;;;;;;13.05;2.30;;;7.70;99.90;;;;;;5053465;28;20458;-27
2022/10/11 07:18:54;;;;;;;13.23;2.20;;;7.90;99.90;;;;;;5053449;28;20110;-28
2022/10/11 07:21:19;;;;;;;16.15;3.53;;;8.00;99.90;;;;;;5054544;28;20371;-27
2022/10/11 07:23:45;;;;;;;15.43;2.72;;;8.10;99.90;;;;;;5053441;28;20045;-27
2022/10/11 07:26:11;;;;;;;12.05;2.15;;;8.30;99.90;;;;;;5053230;28;20451;-28
2022/10/11 07:28:38;;;;;;;12.10;2.28;;;8.40;99.90;;;;;;5035555;28;20045;-28
2022/10/11 07:31:13;;;;;;;19.67;3.40;;;8.70;99.90;;;;;;5052017;28;20482;-27
2022/10/11 07:33:39;;;;;;;17.67;3.13;;;8.90;99.90;;;;;;5053366;28;20060;-28
2022/10/11 07:36:06;;;;;;;15.55;3.05;;;9.10;99.90;;;;;;5053556;28;20044;-27
2022/10/11 07:38:32;;;;;;;14.13;2.67;;;9.40;99.90;;;;;;5052572;28;20051;-28
2022/10/11 07:40:58;;;;;;;18.38;3.08;;;9.50;99.90;;;;;;5052614;28;20082;-28
2022/10/11 07:43:24;;;;;;;14.43;2.33;;;9.70;99.90;;;;;;5052304;28;20049;-27
2022/10/11 07:45:55;;;;;;;12.20;2.03;;;9.70;99.90;;;;;;5053448;28;20479;-28
2022/10/11 07:48:21;;;;;;;12.63;2.47;;;9.70;99.90;;;;;;5054016;28;20057;-28
2022/10/11 07:50:47;;;;;;;19.30;2.65;;;9.70;99.90;;;;;;5053118;28;20045;-28
2022/10/11 07:53:13;;;;;;;18.02;2.72;;;9.70;99.90;;;;;;5053704;28;20045;-28
2022/10/11 07:55:39;;;;;;;11.98;1.95;;;9.70;99.90;;;;;;5053385;28;20490;-27
2022/10/11 07:58:12;;;;;;;8.90;2.45;;;9.90;99.90;;;;;;5053002;28;20554;-27
2022/10/11 08:00:38;;;;;;;11.23;2.40;;;9.80;99.90;;;;;;5052682;28;20418;-28
2022/10/11 08:03:05;;;;;;;15.10;2.28;;;9.80;99.90;;;;;;5052351;28;20049;-27
2022/10/11 08:05:32;;;;;;;13.40;2.28;;;9.80;99.90;;;;;;5035506;28;20049;-28
2022/10/11 08:07:57;;;;;;;14.68;3.42;;;9.80;99.90;;;;;;5053240;28;20056;-27
2022/10/11 08:10:24;;;;;;;10.35;2.05;;;9.90;99.90;;;;;;5051974;28;20391;-27
2022/10/11 08:12:50;;;;;;;15.50;2.78;;;10.10;99.90;;;;;;5052936;28;20052;-28
2022/10/11 08:15:16;;;;;;;14.98;1.90;;;10.30;99.90;;;;;;5052941;28;20045;-28
2022/10/11 08:17:42;;;;;;;17.52;3.55;;;10.40;99.90;;;;;;5035288;28;20049;-27
2022/10/11 08:20:08;;;;;;;14.68;2.38;;;10.60;99.90;;;;;;5054505;28;20415;-28
2022/10/11 08:22:34;;;;;;;14.50;2.45;;;10.70;99.90;;;;;;5056415;28;20048;-28
2022/10/11 08:25:00;;;;;;;14.10;2.30;;;10.90;99.90;;;;;;5056441;28;20052;-28
2022/10/11 08:27:25;;;;;;;11.25;2.40;;;11.10;99.90;;;;;;5056892;28;20406;-28
2022/10/11 08:29:51;;;;;;;19.80;2.47;;;11.10;99.90;;;;;;5057129;28;20379;-28
2022/10/11 08:32:17;;;;;;;11.25;2.45;;;11.20;99.90;;;;;;5054721;28;20044;-28
2022/10/11 08:34:42;;;;;;;10.57;2.08;;;11.30;99.90;;;;;;5056225;28;20063;-28
2022/10/11 08:37:08;;;;;;;14.60;2.00;;;11.50;99.90;;;;;;5056994;28;20103;-27
2022/10/11 08:39:34;;;;;;;12.32;2.80;;;11.60;99.90;;;;;;5056158;28;20077;-28
2022/10/11 08:42:12;;;;;;;9.80;2.00;;;11.70;99.90;;;;;;5056104;28;20049;-28
2022/10/11 08:44:52;;;;;;;12.43;2.28;;;11.80;99.90;;;;;;5056440;28;20378;-28
2022/10/11 08:47:38;;;;;;;9.82;2.13;;;11.90;99.90;;;;;;5056839;28;20049;-28
2022/10/11 08:50:06;;;;;;;13.88;2.83;;;12.00;99.90;;;;;;5056817;28;20059;-29
2022/10/11 08:52:43;;;;;;;14.70;2.55;;;12.20;99.90;;;;;;5055793;28;20048;-28
2022/10/11 08:55:30;;;;;;;14.60;2.15;;;12.40;99.90;;;;;;5055867;28;20092;-29
2022/10/11 08:57:57;;;;;;;10.68;1.75;;;12.60;99.90;;;;;;5038309;28;20053;-28
2022/10/11 09:00:30;;;;;;;13.93;2.42;;;12.70;99.90;;;;;;5054548;28;20041;-28
2022/10/11 09:03:04;;;;;;;12.27;2.47;;;12.90;99.90;;;;;;5055453;28;20426;-28
2022/10/11 09:05:34;;;;;;;11.95;2.50;;;13.00;99.90;;;;;;5056283;28;20053;-28
2022/10/11 09:08:15;;;;;;;22.50;2.63;;;13.00;99.90;;;;;;5055585;28;20443;-29
2022/10/11 09:11:03;;;;;;;10.73;2.25;;;13.10;1.00;;;;;;5055493;28;20533;-28
2022/10/11 09:13:57;;;;;;;13.18;2.45;;;13.50;99.90;;;;;;5054569;28;20059;-27
2022/10/11 09:16:50;;;;;;;17.67;3.40;;;14.10;99.90;;;;;;5054392;28;20049;-29
2022/10/11 09:19:16;;;;;;;;;;;14.60;99.90;;;;;;5054691;28;20056;-28
2022/10/11 09:22:09;;;;;;;10.80;2.10;;;14.60;3.90;;;;;;5055340;28;19921;-28
2022/10/11 09:24:38;;;;;;;13.57;2.17;;;14.90;1.00;;;;;;5055631;28;20045;-28
2022/10/11 09:27:27;;;;;;;10.65;2.03;;;15.30;1.00;;;;;;5054930;28;20487;-29
2022/10/11 09:30:13;;;;;;;17.10;2.55;;;15.30;99.90;;;;;;5055280;28;20080;-28
2022/10/11 09:32:42;;;;;;;13.68;2.55;;;14.90;99.90;;;;;;5054461;28;20505;-28
2022/10/11 09:35:20;;;;;;;11.82;2.35;;;14.40;99.90;;;;;;5055072;28;20478;-30
2022/10/11 09:38:16;;;;;;;11.90;2.10;;;14.70;89.40;;;;;;5055042;28;20124;-28
2022/10/11 09:41:12;;;;;;;11.32;2.42;;;15.30;98.20;;;;;;5054993;28;20095;-28
2022/10/11 09:43:38;;;;;;;11.65;2.05;;;15.80;99.90;;;;;;5055279;28;20494;-28
2022/10/11 09:46:19;;;;;;;14.15;2.67;;;15.80;99.90;;;;;;5053276;28;20075;-28
2022/10/11 09:48:46;;;;;;;12.65;3.00;;;15.90;99.90;;;;;;5055689;28;20041;-28
2022/10/11 09:51:21;;;;;;;16.63;2.22;;;15.80;99.90;;;;;;5055292;28;20132;-29
2022/10/11 09:54:01;;;;;;;17.52;2.95;;;15.70;1.00;;;;;;5054709;28;20053;-28
2022/10/11 09:56:29;;;;;;;16.02;2.53;;;16.20;1.00;;;;;;5055179;28;20049;-28
2022/10/11 09:59:24;;;;;;;13.07;2.30;;;16.40;99.90;;;;;;5053656;28;20502;-28
2022/10/11 10:02:05;;;;;;;13.73;2.55;;;16.20;99.90;;;;;;5054591;28;20086;-28
2022/10/11 10:04:30;;;;;;;11.23;2.08;;;16.10;1.00;;;;;;5055355;28;20045;-28
2022/10/11 10:07:11;;;;;;;10.55;2.42;;;15.70;1.00;;;;;;5053868;28;20045;-29
2022/10/11 10:09:37;;;;;;;14.10;2.13;;;15.20;99.90;;;;;;5054454;28;20048;-28
2022/10/11 10:12:12;;;;;;;10.77;2.10;;;15.10;1.00;;;;;;5054221;28;20129;-28
2022/10/11 10:14:39;;;;;;;9.30;1.67;;;15.30;1.00;;;;;;5054910;28;20395;-28
2022/10/11 10:17:13;;;;;;;12.32;2.03;;;15.30;99.90;;;;;;5054268;28;20049;-28
2022/10/11 10:19:52;;;;;;;13.55;2.60;;;15.30;99.90;;;;;;5053590;28;20048;-29
2022/10/11 10:22:20;;;;;;;11.00;2.13;;;15.80;99.90;;;;;;5053511;28;20057;-29
2022/10/11 10:24:49;;;;;;;12.65;2.22;;;16.30;99.90;;;;;;5054201;28;20062;-28
2022/10/11 10:27:21;;;;;;;12.82;1.85;;;16.60;1.00;;;;;;5052847;28;20047;-29
2022/10/11 10:30:08;;;;;;;10.75;1.60;;;16.80;99.90;;;;;;5054893;28;20048;-29
2022/10/11 10:32:49;;;;;;;14.45;2.67;;;16.70;99.90;;;;;;5054597;28;20387;-28
2022/10/11 10:35:24;;;;;;;10.55;2.33;;;16.70;99.90;;;;;;5053436;28;20459;-29
2022/10/11 10:38:04;;;;;;;9.68;1.83;;;17.10;99.90;;;;;;5054216;28;20490;-29
2022/10/11 10:40:52;;;;;;;12.43;1.75;;;16.80;99.90;;;;;;5052967;28;20041;-29
2022/10/11 10:43:21;;;;;;;7.90;1.90;;;16.10;99.90;;;;;;5052902;28;20056;-29
2022/10/11 10:46:24;;;;;;;8.52;1.58;;;15.60;1.00;;;;;;5052796;28;20056;-28
2022/10/11 10:49:00;;;;;;;11.70;1.98;;;15.30;99.90;;;;;;5053822;28;20150;-28
2022/10/11 10:51:42;;;;;;;12.73;2.25;;;14.90;1.00;;;;;;5053731;28;20044;-29
2022/10/11 10:54:34;;;;;;;15.93;2.53;;;14.70;99.90;;;;;;5053766;28;20045;-28
2022/10/11 10:57:07;;;;;;;13.80;2.30;;;14.60;99.90;;;;;;5053564;28;20106;-29
2022/10/11 11:00:02;;;;;;;11.80;1.70;;;14.50;36.80;;;;;;5054230;28;20040;-29
2022/10/11 11:02:43;;;;;;;10.63;1.60;;;14.50;99.90;;;;;;5052416;28;20403;-29
2022/10/11 11:05:27;;;;;;;8.15;1.42;;;14.90;1.00;;;;;;5053325;28;20467;-28
2022/10/11 11:08:25;;;;;;;11.38;1.40;;;14.80;1.00;;;;;;5054189;28;20391;-28
2022/10/11 11:11:05;;;;;;;9.43;1.63;;;15.00;1.00;;;;;;5054316;28;20132;-29
2022/10/11 11:14:13;;;;;;;13.50;1.58;;;15.30;99.90;;;;;;5053219;28;20049;-28
2022/10/11 11:16:52;;;;;;;6.47;1.27;;;15.10;99.90;;;;;;5053324;28;20562;-29
2022/10/11 11:19:47;;;;;;;8.18;1.70;;;15.50;95.30;;;;;;5054089;28;20088;-29
2022/10/11 11:22:28;;;;;;;7.35;1.17;;;15.40;99.90;;;;;;5054255;28;20045;-28
2022/10/11 11:24:59;;;;;;;11.73;1.75;;;15.10;1.00;;;;;;5053983;28;20174;-29
2022/10/11 11:27:39;;;;;;;7.70;1.45;;;14.80;99.90;;;;;;5053283;28;20131;-28
2022/10/11 11:30:11;;;;;;;12.48;1.50;;;14.60;1.00;;;;;;5053269;28;20045;-29
2022/10/11 11:32:42;;;;;;;9.70;1.73;;;14.40;1.00;;;;;;5053862;28;20049;-28
2022/10/11 11:35:26;;;;;;;6.30;1.15;;;14.40;19.60;;;;;;5053347;28;20124;-28
2022/10/11 11:37:59;;;;;;;8.35;1.40;;;14.30;99.90;;;;;;5053323;28;20048;-28
2022/10/11 11:40:37;;;;;;;8.55;1.27;;;14.20;99.90;;;;;;5053308;28;20128;-28
2022/10/11 11:43:18;;;;;;;7.10;1.42;;;14.20;1.00;;;;;;5053267;28;20049;-28
2022/10/11 11:45:51;;;;;;;9.00;1.23;;;14.20;99.90;;;;;;5053327;28;20061;-28
2022/10/11 11:48:23;;;;;;;10.63;1.38;;;14.10;1.00;;;;;;5053224;28;20060;-30
2022/10/11 11:51:02;;;;;;;6.15;1.20;;;14.10;99.90;;;;;;5053169;28;20045;-28
2022/10/11 11:53:52;;;;;;;8.95;1.27;;;14.00;99.90;;;;;;5053063;28;20041;-29
2022/10/11 11:56:44;;;;;;;11.23;1.60;;;14.00;1.00;;;;;;5056766;28;20048;-29
2022/10/11 11:59:45;;;;;;;9.10;1.35;;;14.20;99.90;;;;;;5056979;28;20045;-28
2022/10/11 12:02:22;;;;;;;11.73;2.33;;;14.90;1.00;;;;;;5038234;28;20092;-29
2022/10/11 12:04:49;;;;;;;9.57;1.75;;;15.80;99.90;;;;;;5056827;28;20091;-28
2022/10/11 12:07:18;;;;;;;7.55;1.20;;;16.50;99.90;;;;;;5056739;28;20041;-29
2022/10/11 12:09:49;;;;;;;14.15;2.03;;;17.40;99.90;;;;;;5056774;28;20052;-28
2022/10/11 12:12:26;;;;;;;13.02;1.67;;;17.50;99.90;;;;;;5056645;28;20048;-28
2022/10/11 12:15:02;;;;;;;10.20;1.65;;;18.20;1.00;;;;;;5057167;28;20447;-29
2022/10/11 12:17:27;;;;;;;11.27;1.48;;;18.40;99.90;;;;;;5056662;28;20123;-28
2022/10/11 12:20:15;;;;;;;6.32;1.23;;;18.10;64.10;;;;;;5055296;28;20132;-29
2022/10/11 12:22:52;;;;;;;10.18;2.72;;;17.20;87.70;;;;;;5056544;28;20076;-28
2022/10/11 12:25:21;;;;;;;13.25;1.70;;;16.20;99.90;;;;;;5056427;28;20487;-28
2022/10/11 12:27:55;;;;;;;12.32;2.17;;;15.70;1.00;;;;;;5056399;28;20045;-29
2022/10/11 12:30:45;;;;;;;8.60;1.75;;;15.60;1.00;;;;;;5056950;28;20084;-29
2022/10/11 12:33:20;;;;;;;6.57;1.05;;;15.40;1.00;;;;;;5055291;28;20563;-29
2022/10/11 12:35:52;;;;;;;7.95;1.20;;;15.20;1.00;;;;;;5056859;28;20089;-29
2022/10/11 12:38:29;;;;;;;8.73;1.48;;;15.00;99.90;;;;;;5056054;28;20056;-28
2022/10/11 12:40:56;;;;;;;8.07;1.15;;;15.10;99.90;;;;;;5056242;28;20467;-29
2022/10/11 12:43:35;;;;;;;9.20;1.63;;;15.70;99.90;;;;;;5056100;28;20051;-28
2022/10/11 12:46:28;;;;;;;10.57;1.58;;;16.30;99.90;;;;;;5055746;28;20526;-29
2022/10/11 12:49:29;;;;;;;13.65;1.67;;;16.50;1.00;;;;;;5056019;28;20053;-29
2022/10/11 12:52:00;;;;;;;7.85;1.00;;;17.00;99.90;;;;;;5056386;28;20403;-29
2022/10/11 12:54:50;;;;;;;8.00;1.88;;;17.30;99.90;;;;;;5055918;28;20041;-28
2022/10/11 12:57:28;;;;;;;6.05;1.08;;;16.90;92.20;;;;;;5056337;28;20049;-29
2022/10/11 13:00:28;;;;;;;8.38;1.42;;;16.20;99.90;;;;;;5054593;28;20053;-28
2022/10/11 13:03:03;;;;;;;9.57;1.52;;;16.30;32.30;;;;;;5055151;28;20072;-28
2022/10/11 13:05:42;;;;;;;12.18;2.13;;;16.70;99.90;;;;;;5054459;28;20087;-29
2022/10/11 13:08:14;;;;;;;8.15;1.60;;;17.00;1.00;;;;;;5037983;28;20052;-28
2022/10/11 13:10:44;;;;;;;6.85;1.60;;;17.20;1.00;;;;;;5055606;28;20135;-28